createdAt,value
2023-02-14T08:05:57.345Z,100062.00
2023-02-14T08:08:30.684Z,100051.00
2023-02-14T08:10:59.138Z,100064.00
2023-02-14T08:13:26.713Z,100058.00
2023-02-14T08:16:06.392Z,100051.00
2023-02-14T08:18:41.953Z,100055.00
2023-02-14T08:21:11.510Z,100051.00
2023-02-14T08:23:39.222Z,100054.00
2023-02-14T08:26:06.634Z,100052.00
2023-02-14T08:28:34.929Z,100055.00
2023-02-14T08:31:04.601Z,100049.00
2023-02-14T08:33:32.134Z,100046.00
2023-02-14T08:36:00.211Z,100042.00
2023-02-14T08:38:27.540Z,100050.00
2023-02-14T08:41:00.070Z,100050.00
2023-02-14T08:43:27.521Z,100037.00
2023-02-14T08:45:54.908Z,100040.00
2023-02-14T08:48:23.593Z,100051.00
2023-02-14T08:50:50.966Z,100058.00
2023-02-14T08:53:18.470Z,100051.00
2023-02-14T08:55:45.822Z,100051.00
2023-02-14T08:58:13.188Z,100049.00
2023-02-14T09:00:41.034Z,100048.00
2023-02-14T09:03:08.714Z,100046.00
2023-02-14T09:05:36.054Z,100046.00
2023-02-14T09:08:03.979Z,100028.00
2023-02-14T09:10:31.572Z,100047.00
2023-02-14T09:12:58.865Z,100039.00
2023-02-14T09:15:26.183Z,100047.00
2023-02-14T09:17:53.580Z,100042.00
2023-02-14T09:20:21.212Z,100047.00
2023-02-14T09:22:48.960Z,100028.00
2023-02-14T09:25:17.508Z,100041.00
2023-02-14T09:27:44.826Z,100044.00
2023-02-14T09:30:13.520Z,100039.00
2023-02-14T09:32:40.873Z,100026.00
2023-02-14T09:35:08.510Z,100034.00
2023-02-14T09:37:54.339Z,100040.00
2023-02-14T09:40:21.988Z,100037.00
2023-02-14T09:43:49.009Z,100036.00
2023-02-14T09:46:18.834Z,100035.00
2023-02-14T09:48:49.482Z,100025.00
2023-02-14T09:51:27.760Z,100036.00
2023-02-14T09:54:16.058Z,100033.00
2023-02-14T09:57:25.283Z,100023.00
2023-02-14T10:00:17.264Z,100030.00
2023-02-14T10:03:12.090Z,100025.00
2023-02-14T10:05:59.771Z,100034.00
2023-02-14T10:09:26.652Z,100026.00
2023-02-14T10:11:57.877Z,100024.00
2023-02-14T10:14:36.510Z,100028.00
2023-02-14T10:17:23.369Z,100023.00
2023-02-14T10:20:01.163Z,100023.00
2023-02-14T10:22:45.249Z,100028.00
2023-02-14T10:25:32.460Z,100018.00
2023-02-14T10:28:02.620Z,100020.00
2023-02-14T10:30:44.042Z,100030.00
2023-02-14T10:33:22.801Z,100018.00
2023-02-14T10:36:33.150Z,100021.00
2023-02-14T10:39:50.249Z,100011.00
2023-02-14T10:43:15.351Z,100002.00
2023-02-14T10:46:10.451Z,100012.00
2023-02-14T10:49:58.239Z,100004.00
2023-02-14T10:53:37.405Z,100001.00
2023-02-14T10:57:04.194Z,100002.00
2023-02-14T11:00:06.771Z,99988.00
2023-02-14T11:02:46.895Z,99994.00
2023-02-14T11:05:47.588Z,99990.00
2023-02-14T11:08:40.312Z,99991.00
2023-02-14T11:11:53.455Z,99983.00
2023-02-14T11:14:25.076Z,99981.00
2023-02-14T11:16:54.773Z,99987.00
2023-02-14T11:19:24.942Z,99982.00
2023-02-14T11:21:56.717Z,99987.00
2023-02-14T11:24:35.793Z,99984.00
2023-02-14T11:27:19.363Z,99979.00
2023-02-14T11:29:52.366Z,99975.00
2023-02-14T11:32:31.174Z,99963.00
2023-02-14T11:35:13.850Z,99958.00
2023-02-14T11:37:57.264Z,99954.00
2023-02-14T11:40:39.702Z,99962.00
2023-02-14T11:43:15.683Z,99955.00
2023-02-14T11:45:47.717Z,99961.00
2023-02-14T11:48:37.812Z,99943.00
2023-02-14T11:51:15.693Z,99947.00
2023-02-14T11:54:00.632Z,99937.00
2023-02-14T11:57:13.813Z,99944.00
2023-02-14T11:59:57.012Z,99941.00
2023-02-14T12:02:48.979Z,99940.00
2023-02-14T12:05:48.702Z,99925.00
2023-02-14T12:08:23.909Z,99925.00
2023-02-14T12:11:23.878Z,99923.00
2023-02-14T12:13:58.348Z,99922.00
2023-02-14T12:17:02.982Z,99918.00
2023-02-14T12:20:16.666Z,99921.00
2023-02-14T12:23:30.032Z,99918.00
2023-02-14T12:26:14.016Z,99908.00
2023-02-14T12:28:54.533Z,99910.00
2023-02-14T12:31:22.058Z,99900.00
2023-02-14T12:33:50.584Z,99903.00
2023-02-14T12:37:02.131Z,99900.00
2023-02-14T12:40:16.164Z,99898.00
2023-02-14T12:43:51.494Z,99894.00
2023-02-14T12:47:14.938Z,99888.00
2023-02-14T12:50:16.656Z,99885.00
2023-02-14T12:53:40.049Z,99890.00
2023-02-14T12:56:50.165Z,99886.00
2023-02-14T13:00:00.047Z,99885.00
2023-02-14T13:03:15.528Z,99892.00
2023-02-14T13:06:03.535Z,99871.00
2023-02-14T13:09:13.492Z,99871.00
2023-02-14T13:12:13.922Z,99861.00
2023-02-14T13:15:35.644Z,99862.00
2023-02-14T13:18:57.921Z,99850.00
2023-02-14T13:21:35.521Z,99866.00
2023-02-14T13:24:38.167Z,99849.00
2023-02-14T13:27:16.160Z,99850.00
2023-02-14T13:29:59.792Z,99854.00
2023-02-14T13:32:37.624Z,99859.00
2023-02-14T13:35:07.777Z,99860.00
2023-02-14T13:37:36.904Z,99856.00
2023-02-14T13:40:20.487Z,99853.00
2023-02-14T13:42:50.595Z,99843.00
2023-02-14T13:45:34.845Z,99839.00
2023-02-14T13:48:28.528Z,99839.00
2023-02-14T13:51:09.019Z,99837.00
2023-02-14T13:53:48.972Z,99834.00
2023-02-14T13:56:16.059Z,99846.00
2023-02-14T13:59:06.408Z,99847.00
2023-02-14T14:01:50.632Z,99839.00
2023-02-14T14:04:44.241Z,99846.00
2023-02-14T14:07:30.748Z,99843.00
2023-02-14T14:10:02.109Z,99844.00
2023-02-14T14:12:29.803Z,99836.00
2023-02-14T14:15:05.853Z,99836.00
2023-02-14T14:17:50.582Z,99833.00
2023-02-14T14:20:20.808Z,99836.00
2023-02-14T14:22:58.823Z,99831.00
2023-02-14T14:25:43.708Z,99830.00
2023-02-14T14:28:18.634Z,99827.00
2023-02-14T14:30:46.316Z,99825.00
2023-02-14T14:33:33.987Z,99820.00
2023-02-14T14:36:11.197Z,99828.00
2023-02-14T14:38:54.240Z,99811.00
2023-02-14T14:41:29.823Z,99817.00
2023-02-14T14:43:59.804Z,99823.00
2023-02-14T14:46:27.894Z,99824.00
2023-02-14T14:48:57.089Z,99820.00
2023-02-14T14:51:35.882Z,99807.00
2023-02-14T14:54:12.756Z,99813.00
2023-02-14T14:57:02.806Z,99806.00
2023-02-14T14:59:36.249Z,99806.00
2023-02-14T15:02:27.988Z,99806.00
2023-02-14T15:04:55.338Z,99801.00
2023-02-14T15:07:36.440Z,99811.00
2023-02-14T15:10:24.521Z,99803.00
2023-02-14T15:13:13.266Z,99795.00
2023-02-14T15:15:41.188Z,99797.00
2023-02-14T15:18:11.744Z,99794.00
2023-02-14T15:20:40.663Z,99800.00
2023-02-14T15:23:17.304Z,99795.00
2023-02-14T15:25:47.349Z,99800.00
2023-02-14T15:28:35.712Z,99797.00
2023-02-14T15:31:07.012Z,99794.00
2023-02-14T15:33:35.733Z,99792.00
2023-02-14T15:36:15.447Z,99789.00
2023-02-14T15:38:43.754Z,99789.00
2023-02-14T15:41:13.926Z,99788.00
2023-02-14T15:43:41.496Z,99784.00
2023-02-14T15:46:29.367Z,99784.00
2023-02-14T15:49:01.345Z,99784.00
2023-02-14T15:51:36.400Z,99785.00
2023-02-14T15:54:31.911Z,99783.00
2023-02-14T15:56:59.801Z,99776.00
2023-02-14T15:59:33.477Z,99787.00
2023-02-14T16:02:37.845Z,99778.00
2023-02-14T16:05:27.274Z,99778.00
2023-02-14T16:08:35.896Z,99776.00
2023-02-14T16:11:31.748Z,99779.00
2023-02-14T16:14:19.382Z,99780.00
2023-02-14T16:17:13.427Z,99778.00
2023-02-14T16:19:45.114Z,99789.00
2023-02-14T16:22:32.111Z,99778.00
2023-02-14T16:25:00.567Z,99770.00
2023-02-14T16:27:28.070Z,99769.00
2023-02-14T16:29:55.460Z,99778.00
2023-02-14T16:32:24.632Z,99771.00
2023-02-14T16:34:52.153Z,99787.00
2023-02-14T16:37:47.625Z,99773.00
2023-02-14T16:40:16.856Z,99763.00
2023-02-14T16:42:44.327Z,99774.00
2023-02-14T16:45:18.877Z,99777.00
2023-02-14T16:47:48.328Z,99774.00
2023-02-14T16:50:17.694Z,99775.00
2023-02-14T16:52:49.911Z,99779.00
2023-02-14T16:55:20.148Z,99777.00
2023-02-14T16:57:50.749Z,99788.00
2023-02-14T17:00:18.276Z,99785.00
2023-02-14T17:02:45.617Z,99794.00
2023-02-14T17:05:13.534Z,99793.00
2023-02-14T17:07:43.621Z,99793.00
2023-02-14T17:10:19.493Z,99800.00
2023-02-14T17:12:48.724Z,99798.00
2023-02-14T17:15:21.532Z,99799.00
2023-02-14T17:17:50.464Z,99805.00
2023-02-14T17:20:20.233Z,99802.00
2023-02-14T17:22:48.201Z,99817.00
2023-02-14T17:25:15.561Z,99824.00
2023-02-14T17:27:44.480Z,99813.00
2023-02-14T17:30:15.375Z,99817.00
2023-02-14T17:32:43.434Z,99812.00
2023-02-14T17:35:11.961Z,99819.00
2023-02-14T17:37:39.627Z,99819.00
2023-02-14T17:40:09.142Z,99813.00
2023-02-14T17:42:36.682Z,99821.00
2023-02-14T17:45:06.753Z,99818.00
2023-02-14T17:47:35.077Z,99806.00
2023-02-14T17:50:03.957Z,99819.00
2023-02-14T17:52:31.437Z,99821.00
2023-02-14T17:54:58.758Z,99822.00
2023-02-14T17:57:26.165Z,99806.00
2023-02-14T17:59:53.701Z,99804.00
2023-02-14T18:02:21.020Z,99821.00
2023-02-14T18:04:48.493Z,99813.00
2023-02-14T18:07:16.531Z,99813.00
2023-02-14T18:09:43.844Z,99811.00
2023-02-14T18:12:14.775Z,99804.00
2023-02-14T18:14:42.870Z,99804.00
2023-02-14T18:17:13.675Z,99802.00
2023-02-14T18:19:41.050Z,99810.00
2023-02-14T18:22:08.373Z,99809.00
2023-02-14T18:24:36.736Z,99809.00
2023-02-14T18:27:06.032Z,99804.00
2023-02-14T18:29:35.118Z,99810.00
2023-02-14T18:32:03.833Z,99800.00
2023-02-14T18:34:31.766Z,99791.00
2023-02-14T18:37:02.124Z,99795.00
2023-02-14T18:39:29.445Z,99786.00
2023-02-14T18:41:59.925Z,99800.00
2023-02-14T18:44:30.456Z,99791.00
2023-02-14T18:47:00.508Z,99781.00
2023-02-14T18:49:27.987Z,99789.00
2023-02-14T18:51:57.252Z,99783.00
2023-02-14T18:54:24.788Z,99777.00
2023-02-14T18:56:52.135Z,99785.00
2023-02-14T18:59:19.579Z,99775.00
2023-02-14T19:01:47.330Z,99777.00
2023-02-14T19:04:17.056Z,99773.00
2023-02-14T19:06:44.879Z,99773.00
2023-02-14T19:09:17.174Z,99763.00
2023-02-14T19:11:45.532Z,99765.00
2023-02-14T19:14:13.446Z,99761.00
2023-02-14T19:16:55.802Z,99765.00
2023-02-14T19:19:23.318Z,99760.00
2023-02-14T19:21:51.197Z,99770.00
2023-02-14T19:24:19.823Z,99764.00
2023-02-14T19:26:48.337Z,99762.00
2023-02-14T19:29:20.356Z,99748.00
2023-02-14T19:31:54.648Z,99751.00
2023-02-14T19:34:29.583Z,99756.00
2023-02-14T19:37:00.580Z,99750.00
2023-02-14T19:39:30.761Z,99760.00
2023-02-14T19:41:59.860Z,99762.00
2023-02-14T19:44:29.164Z,99746.00
2023-02-14T19:46:59.879Z,99747.00
2023-02-14T19:49:29.090Z,99754.00
2023-02-14T19:51:57.954Z,99743.00
2023-02-14T19:54:25.709Z,99731.00
2023-02-14T19:56:56.029Z,99740.00
2023-02-14T19:59:23.497Z,99739.00
2023-02-14T20:01:54.437Z,99740.00
2023-02-14T20:04:28.456Z,99737.00
2023-02-14T20:06:56.912Z,99738.00
2023-02-14T20:09:25.625Z,99739.00
2023-02-14T20:11:57.874Z,99733.00
2023-02-14T20:14:50.190Z,99742.00
2023-02-14T20:17:19.409Z,99735.00
2023-02-14T20:19:46.777Z,99726.00
2023-02-14T20:22:14.174Z,99725.00
2023-02-14T20:24:41.578Z,99730.00
2023-02-14T20:27:09.009Z,99725.00
2023-02-14T20:29:38.891Z,99731.00
2023-02-14T20:32:06.413Z,99728.00
2023-02-14T20:34:33.879Z,99730.00
2023-02-14T20:37:01.327Z,99722.00
2023-02-14T20:39:35.043Z,99714.00
2023-02-14T20:42:02.692Z,99725.00
2023-02-14T20:44:30.951Z,99723.00
2023-02-14T20:46:58.627Z,99731.00
2023-02-14T20:49:30.746Z,99723.00
2023-02-14T20:51:59.234Z,99728.00
2023-02-14T20:54:29.385Z,99717.00
2023-02-14T20:56:57.903Z,99718.00
2023-02-14T20:59:28.829Z,99716.00
2023-02-14T21:01:59.254Z,99719.00
2023-02-14T21:04:27.161Z,99718.00
2023-02-14T21:06:54.652Z,99717.00
2023-02-14T21:09:21.973Z,99705.00
2023-02-14T21:11:50.291Z,99706.00
2023-02-14T21:14:17.818Z,99696.00
2023-02-14T21:16:45.129Z,99689.00
2023-02-14T21:19:12.488Z,99703.00
